Historique des mesures à Cassis (13260), France
Quotidien Résumé Mai 15, 2018 Unités:  Métrique    US   Métrique/US
« Précédent (Jour)
Suivant (Jour) »
Quotidien Hebdomadaire Mensuel Annuel Période au choix
  Maximum: Minimum: Moyenne:
Température: TemperatureC °C 12.1 °C 15.3 °C
Point de rosée: DewpointC °C 7.6 °C 9.9 °C
Humidité: Humidity % 59 % 67 %
Vitesse du vent: 0 km/h 0 km/h 20.6 km/h
Rafales: 0 km/h - -
Vent:- - WSW
Pression: PressurehPa hPa 1005.6 hPa -
Précipitations: 0.0 mm    
Historical Graphs
 
 
Mesures pour : Mai 15, 2018
Heure Temperature Point de rosée Pression Vent Vitesse du vent Rafales Humidité Pluie (par heure) Conditions
TemperatureC °C DewpointC °C PressurehPa hPa Calm     Humidity % HourlyPrecipMM mm SoftwareType W/m2
00:11 12.9 °C 7.8 °C 1010.4 hPa WNW 22.5 km/h 27.2 km/h 71 % 0.0 mm open2300-1.11 W/m2
01:11 12.3 °C 7.6 °C 1009.7 hPa NNW 19.6 km/h 19.6 km/h 73 % 0.0 mm open2300-1.11 W/m2
02:11 12.1 °C 7.8 °C 1009.4 hPa NW 7.6 km/h 13.2 km/h 75 % 0.0 mm open2300-1.11 W/m2
03:11 12.2 °C 7.9 °C 1009.0 hPa WNW 17.9 km/h 17.9 km/h 75 % 0.0 mm open2300-1.11 W/m2
04:11 12.3 °C 8.2 °C 1008.7 hPa Calm   12.2 km/h 76 % 0.0 mm open2300-1.11 W/m2
05:11 12.4 °C 8.3 °C 1008.4 hPa NW 10.9 km/h 10.9 km/h 76 % 0.0 mm open2300-1.11 W/m2
06:11 12.6 °C 8.4 °C 1007.7 hPa NNE 14 km/h 18.7 km/h 76 % 0.0 mm open2300-1.11 W/m2
07:11 12.3 °C 8.8 °C 1008.0 hPa WNW 30.7 km/h 30.7 km/h 79 % 0.0 mm open2300-1.11 W/m2
08:10 12.3 °C 9.2 °C 1008.4 hPa NNW 14 km/h 23 km/h 81 % 0.0 mm open2300-1.11 W/m2
09:10 12.9 °C 9.7 °C 1008.0 hPa WNW 35.2 km/h 35.2 km/h 81 % 0.0 mm open2300-1.11 W/m2
10:10 14.5 °C 10.3 °C 1007.7 hPa WNW 24.8 km/h 48.6 km/h 76 % 0.0 mm open2300-1.11 W/m2
11:10 15.5 °C 10.5 °C 1007.7 hPa West 45.9 km/h 45.9 km/h 72 % 0.0 mm open2300-1.11 W/m2
12:10 16.5 °C 11.1 °C 1007.7 hPa WNW 37 km/h 60.3 km/h 70 % 0.0 mm open2300-1.11 W/m2
13:10 17.9 °C 11.7 °C 1007.7 hPa Calm   19.6 km/h 67 % 0.0 mm open2300-1.11 W/m2
14:10 18.4 °C 11.9 °C 1007.3 hPa NNE 15.6 km/h 48.6 km/h 66 % 0.0 mm open2300-1.11 W/m2
15:10 20.1 °C 13.1 °C 1007.0 hPa NNW 14.5 km/h 33.6 km/h 64 % 0.0 mm open2300-1.11 W/m2
16:10 20.9 °C 13.1 °C 1006.3 hPa NNE 9.8 km/h 26.2 km/h 61 % 0.0 mm open2300-1.11 W/m2
17:10 21.1 °C 13.1 °C 1006.0 hPa WSW 32.3 km/h 54.4 km/h 60 % 0.0 mm open2300-1.11 W/m2
18:10 20.8 °C 12.5 °C 1005.6 hPa NW 28.5 km/h 28.5 km/h 59 % 0.0 mm open2300-1.11 W/m2
19:12 20.2 °C 11.9 °C 1006.0 hPa NNW 19.2 km/h 33.6 km/h 59 % 0.0 mm open2300-1.11 W/m2
20:11 19.6 °C 11.7 °C 1006.3 hPa NNE 23.8 km/h 23.8 km/h 60 % 0.0 mm open2300-1.11 W/m2
21:11 19.0 °C 11.1 °C 1006.7 hPa WNW 29 km/h 29 km/h 60 % 0.0 mm open2300-1.11 W/m2
22:11 16.8 °C 11.5 °C 1007.0 hPa West 51.5 km/h 51.5 km/h 71 % 0.0 mm open2300-1.11 W/m2
23:11 16.1 °C 11.5 °C 1008.7 hPa NW 9.3 km/h 9.3 km/h 74 % 0.0 mm open2300-1.11 W/m2
Observations météo à CASSIS
WU-History script by Weather Underground - 1 mb